createdAt,value
2023-01-23T00:00:48.994Z,99770.72
2023-01-23T00:03:51.873Z,99774.97
2023-01-23T00:06:55.206Z,99772.72
2023-01-23T00:09:57.846Z,99764.75
2023-01-23T00:13:01.990Z,99770.84
2023-01-23T00:16:06.218Z,99766.19
2023-01-23T00:19:10.224Z,99768.91
2023-01-23T00:22:15.241Z,99768.66
2023-01-23T00:25:17.993Z,99774.84
2023-01-23T00:28:22.047Z,99771.47
2023-01-23T00:31:27.095Z,99770.97
2023-01-23T00:34:29.907Z,99770.28
2023-01-23T00:37:32.477Z,99771.91
2023-01-23T00:40:35.349Z,99770.84
2023-01-23T00:43:39.482Z,99755.19
2023-01-23T00:46:42.308Z,99767.44
2023-01-23T00:49:44.947Z,99776.72
2023-01-23T00:52:47.549Z,99769.22
2023-01-23T00:55:50.334Z,99766.66
2023-01-23T00:58:54.527Z,99770.97
2023-01-23T01:01:57.366Z,99756.44
2023-01-23T01:05:00.146Z,99763.69
2023-01-23T01:08:02.950Z,99773.06
2023-01-23T01:11:07.821Z,99769.16
2023-01-23T01:14:11.852Z,99778.59
2023-01-23T01:17:14.601Z,99781.75
2023-01-23T01:20:18.141Z,99792.88
2023-01-23T01:23:21.137Z,99797.31
2023-01-23T01:26:26.177Z,99800.72
2023-01-23T01:29:30.150Z,99803.66
2023-01-23T01:32:32.960Z,99806.47
2023-01-23T01:35:35.885Z,99798.47
2023-01-23T01:38:39.432Z,99812.88
2023-01-23T01:41:42.087Z,99803.88
2023-01-23T01:44:57.137Z,99806.22
2023-01-23T01:47:59.784Z,99802.94
2023-01-23T01:51:06.647Z,99812.56
2023-01-23T01:54:13.935Z,99808.56
2023-01-23T01:57:19.357Z,99811.88
2023-01-23T02:00:23.342Z,99809.16
2023-01-23T02:03:27.075Z,99812.06
2023-01-23T02:06:29.769Z,99810.31
2023-01-23T02:09:33.607Z,99813.13
2023-01-23T02:12:36.042Z,99816.19
2023-01-23T02:15:40.439Z,99817.22
2023-01-23T02:18:47.683Z,99817.13
2023-01-23T02:21:54.170Z,99811.94
2023-01-23T02:25:01.480Z,99807.88
2023-01-23T02:28:05.745Z,99811.25
2023-01-23T02:31:09.510Z,99811.50
2023-01-23T02:34:12.638Z,99798.28
2023-01-23T02:37:15.552Z,99797.22
2023-01-23T02:40:18.906Z,99806.47
2023-01-23T02:43:26.709Z,99801.91
2023-01-23T02:46:29.295Z,99808.56
2023-01-23T02:49:32.688Z,99804.22
2023-01-23T02:52:35.311Z,99806.69
2023-01-23T02:55:42.354Z,99809.97
2023-01-23T02:59:04.432Z,99821.22
2023-01-23T03:02:07.097Z,99815.00
2023-01-23T03:05:10.595Z,99815.94
2023-01-23T03:08:13.237Z,99812.06
2023-01-23T03:11:17.599Z,99808.31
2023-01-23T03:14:23.820Z,99813.25
2023-01-23T03:17:27.169Z,99813.94
2023-01-23T03:20:29.845Z,99819.22
2023-01-23T03:23:32.449Z,99812.66
2023-01-23T03:26:35.222Z,99811.50
2023-01-23T03:29:56.738Z,99813.50
2023-01-23T03:32:59.323Z,99813.25
2023-01-23T03:36:02.199Z,99806.81
2023-01-23T03:39:23.874Z,99800.84
2023-01-23T03:42:26.521Z,99797.09
2023-01-23T03:45:30.525Z,99798.97
2023-01-23T03:48:33.102Z,99791.44
2023-01-23T03:51:35.733Z,99799.09
2023-01-23T03:54:38.388Z,99806.09
2023-01-23T03:57:41.087Z,99805.28
2023-01-23T04:00:45.260Z,99814.06
2023-01-23T04:03:48.071Z,99807.28
2023-01-23T04:06:50.673Z,99813.50
2023-01-23T04:09:53.329Z,99809.97
2023-01-23T04:12:56.114Z,99817.56
2023-01-23T04:16:00.336Z,99815.25
2023-01-23T04:19:03.075Z,99822.84
2023-01-23T04:22:05.807Z,99824.16
2023-01-23T04:25:10.114Z,99829.66
2023-01-23T04:28:12.722Z,99839.00
2023-01-23T04:31:16.924Z,99843.69
2023-01-23T04:34:19.610Z,99839.25
2023-01-23T04:37:23.386Z,99840.44
2023-01-23T04:40:26.318Z,99840.88
2023-01-23T04:43:28.971Z,99841.56
2023-01-23T04:46:32.959Z,99830.47
2023-01-23T04:49:35.517Z,99842.75
2023-01-23T04:52:38.482Z,99848.50
2023-01-23T04:55:41.350Z,99852.34
2023-01-23T04:58:44.039Z,99851.31
2023-01-23T05:01:47.936Z,99848.59
2023-01-23T05:04:50.490Z,99852.16
2023-01-23T05:07:53.411Z,99851.78
2023-01-23T05:10:56.080Z,99847.47
2023-01-23T05:13:58.847Z,99846.53
2023-01-23T05:17:03.124Z,99855.03
2023-01-23T05:20:07.109Z,99854.97
2023-01-23T05:23:10.060Z,99852.34
2023-01-23T05:26:12.866Z,99850.34
2023-01-23T05:29:15.583Z,99850.47
2023-01-23T05:32:19.599Z,99846.97
2023-01-23T05:35:22.293Z,99861.13
2023-01-23T05:38:25.327Z,99864.06
2023-01-23T05:41:28.008Z,99854.22
2023-01-23T05:44:30.614Z,99857.53
2023-01-23T05:47:34.728Z,99851.31
2023-01-23T05:50:37.308Z,99852.34
2023-01-23T05:53:40.028Z,99845.00
2023-01-23T05:56:42.555Z,99848.97
2023-01-23T05:59:45.448Z,99860.69
2023-01-23T06:02:49.573Z,99872.97
2023-01-23T06:05:52.194Z,99877.66
2023-01-23T06:08:55.006Z,99869.59
2023-01-23T06:11:57.641Z,99874.50
2023-01-23T06:15:00.183Z,99872.84
2023-01-23T06:18:04.177Z,99868.28
2023-01-23T06:21:07.236Z,99871.69
2023-01-23T06:24:10.095Z,99880.13
2023-01-23T06:27:12.753Z,99885.38
2023-01-23T06:30:15.875Z,99889.88
2023-01-23T06:33:19.932Z,99881.31
2023-01-23T06:36:22.719Z,99894.19
2023-01-23T06:39:25.338Z,99902.97
2023-01-23T06:42:27.960Z,99911.31
2023-01-23T06:45:30.669Z,99922.41
2023-01-23T06:48:34.653Z,99926.03
2023-01-23T06:51:37.016Z,99926.84
2023-01-23T06:54:39.830Z,99923.94
2023-01-23T06:57:42.447Z,99937.19
2023-01-23T07:00:56.676Z,99936.13
2023-01-23T07:04:18.448Z,99944.56
2023-01-23T07:07:37.636Z,99939.03
2023-01-23T07:10:41.440Z,99945.63
2023-01-23T07:13:48.827Z,99949.03
2023-01-23T07:17:16.269Z,99954.75
2023-01-23T07:20:23.180Z,99956.19
2023-01-23T07:23:28.642Z,99953.13
2023-01-23T07:26:35.038Z,99954.53
2023-01-23T07:29:38.069Z,99958.88
2023-01-23T07:32:43.434Z,99962.13
2023-01-23T07:35:49.427Z,99964.38
2023-01-23T07:38:52.568Z,99964.47
2023-01-23T07:42:01.677Z,99964.59
2023-01-23T07:45:11.020Z,99959.56
2023-01-23T07:48:13.882Z,99961.78
2023-01-23T07:51:29.583Z,99964.84
2023-01-23T07:54:40.727Z,99966.03
2023-01-23T07:57:46.371Z,99964.38
2023-01-23T08:01:05.565Z,99958.53
2023-01-23T08:04:17.753Z,99954.66
2023-01-23T08:07:25.023Z,99959.09
2023-01-23T08:10:34.127Z,99950.19
2023-01-23T08:13:36.789Z,99959.34
2023-01-23T08:16:39.518Z,99954.41
2023-01-23T08:19:42.152Z,99955.25
2023-01-23T08:23:12.135Z,99950.69
2023-01-23T08:26:16.374Z,99963.34
2023-01-23T08:29:21.609Z,99955.25
2023-01-23T08:32:24.575Z,99955.94
2023-01-23T08:35:27.140Z,99955.34
2023-01-23T08:38:33.011Z,99947.94
2023-01-23T08:41:35.579Z,99949.34
2023-01-23T08:44:38.319Z,99953.69
2023-01-23T08:47:40.922Z,99954.31
2023-01-23T08:50:44.482Z,99953.47
2023-01-23T08:53:54.128Z,99949.88
2023-01-23T08:56:56.723Z,99950.44
2023-01-23T08:59:59.851Z,99942.72
2023-01-23T09:03:03.457Z,99955.84
2023-01-23T09:06:06.567Z,99956.16
2023-01-23T09:09:10.516Z,99956.13
2023-01-23T09:12:13.359Z,99938.66
2023-01-23T09:15:15.946Z,99950.59
2023-01-23T09:18:18.979Z,99950.00
2023-01-23T09:21:21.965Z,99958.16
2023-01-23T09:24:25.965Z,99958.72
2023-01-23T09:27:28.888Z,99966.78
2023-01-23T09:30:31.538Z,99963.78
2023-01-23T09:33:35.021Z,99965.41
2023-01-23T09:36:43.174Z,99969.91
2023-01-23T09:39:47.970Z,99972.75
2023-01-23T09:42:51.055Z,99969.25
2023-01-23T09:45:59.612Z,99962.22
2023-01-23T09:49:04.800Z,99957.22
2023-01-23T09:52:09.110Z,99969.16
2023-01-23T09:55:17.872Z,99968.13
2023-01-23T09:58:23.789Z,99978.22
2023-01-23T10:01:27.868Z,99989.28
2023-01-23T10:04:32.541Z,99980.44
2023-01-23T10:07:45.734Z,99967.97
2023-01-23T10:10:59.003Z,99966.41
2023-01-23T10:14:11.966Z,99980.69
2023-01-23T10:17:20.341Z,99973.00
2023-01-23T10:20:37.043Z,99979.28
2023-01-23T10:23:47.495Z,99962.16
2023-01-23T10:26:51.754Z,99972.28
2023-01-23T10:29:58.379Z,99971.38
2023-01-23T10:33:03.630Z,99965.00
2023-01-23T10:36:12.546Z,99959.28
2023-01-23T10:39:21.602Z,99968.72
2023-01-23T10:42:28.115Z,99966.16
2023-01-23T10:45:31.930Z,99949.38
2023-01-23T10:48:44.903Z,99960.03
2023-01-23T10:51:48.829Z,99950.53
2023-01-23T10:54:51.247Z,99954.59
2023-01-23T10:57:57.196Z,99952.97
2023-01-23T11:01:00.323Z,99947.75
2023-01-23T11:04:18.654Z,99944.72
2023-01-23T11:07:24.343Z,99937.31
2023-01-23T11:10:26.931Z,99935.97
2023-01-23T11:13:31.781Z,99941.13
2023-01-23T11:16:35.354Z,99941.19
2023-01-23T11:19:38.256Z,99941.34
2023-01-23T11:22:42.915Z,99929.53
2023-01-23T11:25:47.184Z,99923.59
2023-01-23T11:28:51.473Z,99920.88
2023-01-23T11:31:59.117Z,99915.75
2023-01-23T11:35:17.774Z,99922.16
2023-01-23T11:38:30.926Z,99903.38
2023-01-23T11:41:35.989Z,99910.06
2023-01-23T11:44:46.488Z,99915.66
2023-01-23T11:48:02.008Z,99906.63
2023-01-23T11:51:09.747Z,99910.06
2023-01-23T11:54:28.280Z,99910.91
2023-01-23T11:57:37.639Z,99912.84
2023-01-23T12:00:45.171Z,99905.31
2023-01-23T12:04:13.811Z,99909.00
2023-01-23T12:07:21.143Z,99915.22
2023-01-23T12:10:26.213Z,99911.22
2023-01-23T12:13:47.165Z,99907.53
2023-01-23T12:17:14.977Z,99904.81
2023-01-23T12:20:24.994Z,99898.59
2023-01-23T12:23:42.967Z,99888.44
2023-01-23T12:26:57.955Z,99874.19
2023-01-23T12:30:10.169Z,99873.59
2023-01-23T12:33:22.316Z,99869.69
2023-01-23T12:36:40.285Z,99862.81
2023-01-23T12:39:59.686Z,99850.59
2023-01-23T12:43:05.434Z,99845.75
2023-01-23T12:46:11.250Z,99853.06
2023-01-23T12:49:24.305Z,99840.69
2023-01-23T12:52:30.259Z,99833.84
2023-01-23T12:55:36.812Z,99837.69
2023-01-23T12:58:42.768Z,99839.38
2023-01-23T13:01:54.055Z,99829.72
2023-01-23T13:05:08.170Z,99828.59
2023-01-23T13:08:11.643Z,99832.09
2023-01-23T13:11:34.476Z,99823.22
2023-01-23T13:15:03.548Z,99822.84
2023-01-23T13:18:09.128Z,99828.19
2023-01-23T13:21:30.948Z,99820.88
2023-01-23T13:25:01.271Z,99823.47
2023-01-23T13:28:43.959Z,99832.84
2023-01-23T13:31:51.703Z,99839.31
2023-01-23T13:34:54.851Z,99847.13
2023-01-23T13:37:59.920Z,99838.41
2023-01-23T13:41:29.308Z,99836.66
2023-01-23T13:44:40.808Z,99817.47
2023-01-23T14:22:13.463Z,99835.88
2023-01-23T14:25:18.296Z,99834.16
2023-01-23T14:28:22.506Z,99842.94
2023-01-23T14:31:28.241Z,99841.75
2023-01-23T14:34:30.929Z,99842.13
2023-01-23T14:37:36.036Z,99827.22
2023-01-23T14:40:50.821Z,99825.84
2023-01-23T14:43:56.134Z,99819.53
2023-01-23T14:47:00.618Z,99824.81
2023-01-23T14:50:04.379Z,99822.78
2023-01-23T14:53:08.641Z,99812.22
2023-01-23T14:56:12.841Z,99812.88
2023-01-23T14:59:21.178Z,99825.41
2023-01-23T15:02:27.694Z,99821.81
2023-01-23T15:05:32.941Z,99822.25
2023-01-23T15:08:36.651Z,99830.28
2023-01-23T15:11:39.708Z,99819.66
2023-01-23T15:14:44.290Z,99829.59
2023-01-23T15:17:47.498Z,99825.69
2023-01-23T15:20:54.197Z,99817.81
2023-01-23T15:24:06.431Z,99821.38
2023-01-23T15:27:26.070Z,99821.47
2023-01-23T15:30:38.804Z,99818.34
2023-01-23T15:33:42.536Z,99826.03
2023-01-23T15:36:48.139Z,99820.56
2023-01-23T15:39:52.436Z,99820.31
2023-01-23T15:43:08.384Z,99825.91
2023-01-23T15:46:12.846Z,99817.97
2023-01-23T15:49:24.851Z,99820.75
2023-01-23T15:52:30.556Z,99824.81
2023-01-23T15:55:33.416Z,99835.16
2023-01-23T15:58:35.949Z,99845.88
2023-01-23T16:01:40.155Z,99837.03
2023-01-23T16:04:42.803Z,99836.78
2023-01-23T16:07:48.294Z,99844.22
2023-01-23T16:10:51.382Z,99844.81
2023-01-23T16:13:54.136Z,99852.28
2023-01-23T16:17:11.408Z,99853.72
2023-01-23T16:20:20.046Z,99850.31
2023-01-23T16:23:25.828Z,99847.34
2023-01-23T16:26:29.510Z,99861.28
2023-01-23T16:29:34.086Z,99859.31
2023-01-23T16:32:38.501Z,99861.28
2023-01-23T16:35:42.037Z,99863.47
2023-01-23T16:38:46.685Z,99857.84
2023-01-23T16:41:49.783Z,99862.66
2023-01-23T16:44:52.471Z,99860.44
2023-01-23T16:47:57.211Z,99861.66
2023-01-23T16:51:05.011Z,99856.69
2023-01-23T16:54:18.280Z,99860.44
2023-01-23T16:57:21.608Z,99856.00
2023-01-23T17:00:34.059Z,99877.25
2023-01-23T17:03:41.621Z,99868.72
2023-01-23T17:06:44.622Z,99875.53
2023-01-23T17:09:49.276Z,99874.06
2023-01-23T17:12:54.558Z,99882.38
2023-01-23T17:15:57.670Z,99887.72
2023-01-23T17:19:08.049Z,99887.31
2023-01-23T17:22:19.539Z,99885.69
2023-01-23T17:25:24.688Z,99887.94
2023-01-23T17:28:27.495Z,99890.91
2023-01-23T17:31:32.397Z,99895.72
2023-01-23T17:34:48.877Z,99890.91
2023-01-23T17:37:52.422Z,99903.91
2023-01-23T17:40:55.195Z,99902.69
2023-01-23T17:43:57.727Z,99900.25
2023-01-23T17:47:00.426Z,99907.06
2023-01-23T17:50:05.801Z,99906.31
2023-01-23T17:53:10.039Z,99910.06
2023-01-23T17:56:12.774Z,99908.50
2023-01-23T17:59:15.343Z,99904.00
2023-01-23T18:02:27.440Z,99907.78
2023-01-23T18:05:31.400Z,99903.66
2023-01-23T18:08:34.183Z,99907.06
2023-01-23T18:11:38.482Z,99916.19
2023-01-23T18:14:47.822Z,99923.00
2023-01-23T18:17:54.055Z,99917.59
2023-01-23T18:20:59.363Z,99916.16
2023-01-23T18:24:02.570Z,99921.03
2023-01-23T18:27:17.282Z,99923.66
2023-01-23T18:30:42.701Z,99919.31
2023-01-23T18:33:54.398Z,99919.31
2023-01-23T18:37:06.153Z,99914.81
2023-01-23T18:40:14.088Z,99908.03
2023-01-23T18:43:29.899Z,99906.31
2023-01-23T18:46:33.044Z,99899.75
2023-01-23T18:49:36.167Z,99905.72
2023-01-23T18:52:47.843Z,99903.34
2023-01-23T18:55:57.250Z,99897.78
2023-01-23T18:59:12.086Z,99903.28
2023-01-23T19:02:21.616Z,99913.34
2023-01-23T19:05:29.048Z,99908.50
2023-01-23T19:08:33.390Z,99898.03
2023-01-23T19:11:46.412Z,99888.63
2023-01-23T19:15:16.275Z,99893.84
2023-01-23T19:18:40.135Z,99885.66
2023-01-23T19:21:43.516Z,99876.50
2023-01-23T19:24:48.423Z,99868.97
2023-01-23T19:27:53.022Z,99879.84
2023-01-23T19:30:56.319Z,99886.31
2023-01-23T19:33:59.701Z,99889.38
2023-01-23T19:37:02.398Z,99893.78
2023-01-23T19:40:08.870Z,99901.94
2023-01-23T19:43:15.354Z,99902.28
2023-01-23T19:46:18.434Z,99913.34
2023-01-23T19:49:21.229Z,99922.59
2023-01-23T19:52:24.193Z,99922.75
2023-01-23T19:55:30.301Z,99925.56
2023-01-23T19:58:32.983Z,99923.84
2023-01-23T20:01:40.717Z,99934.00
2023-01-23T20:04:43.586Z,99925.63
2023-01-23T20:07:46.431Z,99924.88
2023-01-23T20:10:50.339Z,99924.25
2023-01-23T20:13:52.931Z,99928.59
2023-01-23T20:16:55.907Z,99928.09
2023-01-23T20:19:58.645Z,99935.47
2023-01-23T20:23:01.216Z,99928.16
2023-01-23T20:26:05.476Z,99927.50
2023-01-23T20:29:08.672Z,99931.03
2023-01-23T20:32:11.419Z,99928.34
2023-01-23T20:35:14.127Z,99929.16
2023-01-23T20:38:16.806Z,99933.81
2023-01-23T20:41:22.154Z,99930.78
2023-01-23T20:44:24.913Z,99938.41
2023-01-23T20:47:27.664Z,99940.31
2023-01-23T20:50:30.429Z,99927.69
2023-01-23T20:53:34.939Z,99927.25
2023-01-23T20:56:38.857Z,99934.06
2023-01-23T20:59:40.718Z,99935.13
2023-01-23T21:02:43.646Z,99943.81
2023-01-23T21:05:46.209Z,99937.09
2023-01-23T21:08:48.840Z,99936.44
2023-01-23T21:11:54.227Z,99943.97
2023-01-23T21:14:56.895Z,99944.81
2023-01-23T21:17:59.674Z,99936.69
2023-01-23T21:21:07.908Z,99952.75
2023-01-23T21:24:10.663Z,99954.38
2023-01-23T21:27:14.614Z,99956.28
2023-01-23T21:30:17.942Z,99955.63
2023-01-23T21:33:22.654Z,99964.47
2023-01-23T21:36:25.930Z,99949.28
2023-01-23T21:39:28.681Z,99955.47
2023-01-23T21:42:32.639Z,99956.91
2023-01-23T21:45:35.373Z,99949.88
2023-01-23T21:48:38.448Z,99936.13
2023-01-23T21:51:41.179Z,99942.97
2023-01-23T21:54:43.866Z,99943.41
2023-01-23T21:57:47.864Z,99949.28
2023-01-23T22:01:15.044Z,99952.91
2023-01-23T22:04:19.332Z,99960.69
2023-01-23T22:07:22.038Z,99958.63
2023-01-23T22:10:24.689Z,99950.38
2023-01-23T22:13:28.808Z,99961.25
2023-01-23T22:16:47.463Z,99972.16
2023-01-23T22:19:51.710Z,99974.13
2023-01-23T22:22:54.942Z,99961.59
2023-01-23T22:25:59.372Z,99953.78
2023-01-23T22:29:03.300Z,99967.19
2023-01-23T22:32:06.002Z,99966.28
2023-01-23T22:35:10.962Z,99967.66
2023-01-23T22:38:15.753Z,99960.06
2023-01-23T22:41:19.731Z,99964.59
2023-01-23T22:44:23.862Z,99971.59
2023-01-23T22:47:28.528Z,99964.38
2023-01-23T22:50:31.751Z,99971.50
2023-01-23T22:53:35.268Z,99965.69
2023-01-23T22:56:38.627Z,99971.41
2023-01-23T22:59:42.643Z,99963.00
2023-01-23T23:02:45.316Z,99973.63
2023-01-23T23:05:48.657Z,99969.28
2023-01-23T23:08:51.306Z,99972.38
2023-01-23T23:11:54.124Z,99966.97
2023-01-23T23:14:58.082Z,99962.25
2023-01-23T23:18:00.594Z,99971.06
2023-01-23T23:21:04.989Z,99977.84
2023-01-23T23:24:09.301Z,99971.63
2023-01-23T23:27:12.004Z,99979.34
2023-01-23T23:30:16.772Z,99978.41
2023-01-23T23:33:19.742Z,99971.84
2023-01-23T23:36:22.667Z,99973.25
2023-01-23T23:39:25.865Z,99976.34
2023-01-23T23:45:57.650Z,99983.16
2023-01-23T23:49:00.586Z,99978.31
2023-01-23T23:52:03.256Z,99977.25
2023-01-23T23:55:06.757Z,99978.66
2023-01-23T23:58:09.435Z,99981.50
